Terminal Aerodrome Forecast
Issued by NWS

Home | Current Version | Previous Version | Text Only | Print | Product List | Glossary On
Versions: 1 2 3 4 5 6 7 8 9 10 11 12 13 14 15 16 17 18 19 20 21 22 23
000
FTUS41 KOKX 302349
TAFHPN
TAF
KHPN 302349Z 3100/3124 17006KT P6SM FEW080 BKN130
     FM310200 VRB03KT 6SM BR VCSH SCT080 BKN130
     FM310400 VRB03KT 4SM BR SCT010 BKN040
      TEMPO 3106/3110 2SM BR BKN010
     FM311000 33005KT P6SM SCT090 BKN250
     FM311800 28007KT P6SM FEW040 SCT250
     FM312000 18008KT P6SM FEW040 SCT250
      AMD NOT SKED=

USA.gov is the U.S. government's official web portal to all federal, state and local government web resources and services.